Latest Weather Observations for Samuel Hill

IDQ60801

Issued at 10:31 pm EST Sunday 14 February 2016 (issued every 30 minutes, with the page automatically refreshed every 10 minutes)

About weather observations | Map of weather stations | Latest weather observations for QLD | Other Formats
Station Details ID: 033308 Name: SAMUEL HILL AERO Lat: -22.74 Lon: 150.66 Height: 31.0 m
Data from the previous 72 hours. | See also: Recent months at Samuel Hill
Date/Time
EST
Temp
°C
App
Temp
°C
Dew
Point
Rel
Hum
%
Delta-T
°C
Wind Press
QNH
hPa
Press
MSL
hPa
Rain
since 9 am
mm
Dir
 
Spd
km/h
Gust
km/h
Spd
kts
Gust
kts
14/10:30pm 23.0 27.3 21.1 89 1.2 CALM 0 0 0 0 1009.3 1009.1 0.0
14/10:00pm 23.1 27.2 20.8 87 1.5 CALM 0 0 0 0 1009.3 1009.1 0.0
14/09:30pm 24.2 27.5 21.5 85 1.8 S 6 9 3 5 1009.1 1008.9 0.0
14/09:00pm 24.3 27.4 21.4 84 1.9 SSE 7 9 4 5 1008.9 1008.7 0.0
14/08:30pm 24.7 27.9 21.6 83 2.1 SSE 7 9 4 5 1008.7 1008.5 0.0
14/08:00pm 24.9 28.0 21.4 81 2.3 SSE 7 9 4 5 1008.5 1008.3 0.0
14/07:30pm 25.3 28.1 21.6 80 2.5 SE 9 11 5 6 1008.0 1007.8 0.0
14/07:00pm 25.8 28.6 21.5 77 2.9 SE 9 13 5 7 1007.4 1007.2 0.0
14/06:30pm 26.5 28.2 21.0 72 3.6 ESE 13 19 7 10 1006.9 1006.7 0.0
14/06:00pm 27.4 27.7 20.5 66 4.6 ESE 19 24 10 13 1006.5 1006.3 0.0
14/05:30pm 28.3 29.5 20.6 63 5.1 ESE 15 22 8 12 1006.0 1005.8 0.0
14/05:00pm 29.0 29.7 20.4 59 5.7 SE 17 26 9 14 1005.7 1005.5 0.0
14/04:30pm 29.5 29.7 20.1 57 6.2 ESE 19 26 10 14 1005.5 1005.3 0.0
14/04:00pm 29.4 29.3 20.0 57 6.2 ESE 20 30 11 16 1005.6 1005.4 0.0
14/03:30pm 29.8 30.0 20.6 57 6.1 ESE 20 30 11 16 1005.8 1005.6 0.0
14/03:00pm 29.7 29.5 19.7 55 6.6 ESE 20 28 11 15 1005.8 1005.6 0.0
14/02:30pm 29.6 28.9 19.6 55 6.5 ESE 22 30 12 16 1006.0 1005.8 0.0
14/02:00pm 30.0 29.6 18.8 51 7.3 ESE 19 28 10 15 1006.1 1005.9 0.0
14/01:30pm 30.3 30.1 19.3 51 7.2 ESE 19 28 10 15 1006.3 1006.1 0.0
14/01:00pm 30.2 30.4 19.3 52 7.1 SE 17 24 9 13 1006.4 1006.2 0.0
14/12:30pm 29.6 29.2 18.1 50 7.4 SSE 17 28 9 15 1006.6 1006.4 0.0
14/12:00pm 29.4 29.0 18.8 53 6.9 SE 19 32 10 17 1006.9 1006.7 0.0
14/11:30am 29.5 28.9 18.9 53 6.9 ESE 20 32 11 17 1007.1 1006.9 0.0
14/11:00am 29.1 28.3 18.5 52 6.8 SE 20 33 11 18 1007.2 1007.0 0.0
14/10:30am 29.1 28.9 18.5 52 6.8 SE 17 24 9 13 1007.5 1007.3 0.0
14/10:00am 28.4 28.6 18.5 55 6.4 SSE 15 24 8 13 1007.8 1007.6 0.0
14/09:30am 28.0 28.0 18.1 55 6.3 SSE 15 22 8 12 1008.1 1007.9 0.0
14/09:00am 27.2 27.5 17.9 56 5.9 S 13 20 7 11 1008.1 1007.9 0.0
14/08:30am 26.5 25.7 17.0 56 5.9 S 17 26 9 14 1008.2 1008.0 0.0
14/08:00am 26.2 25.9 16.4 54 6.1 S 13 19 7 10 1008.1 1007.9 0.0
14/07:30am 25.7 26.0 17.1 59 5.4 S 11 17 6 9 1008.0 1007.8 0.0
14/07:00am 24.4 25.8 17.9 67 4.1 SSW 7 11 4 6 1007.9 1007.7 0.0
14/06:30am 22.5 24.3 18.7 79 2.4 W 7 9 4 5 1007.7 1007.5 0.0
14/06:00am 21.0 23.1 18.2 84 1.7 SSW 4 7 2 4 1007.5 1007.3 0.0
14/05:30am 21.9 23.5 18.3 80 2.3 S 7 9 4 5 1007.2 1007.0 0.0
14/05:00am 22.1 23.7 18.3 79 2.4 SSE 7 9 4 5 1006.6 1006.4 0.0
14/04:30am 22.4 23.8 18.6 79 2.4 SSE 9 15 5 8 1006.3 1006.1 0.0
14/04:00am 22.6 24.4 18.8 79 2.4 S 7 9 4 5 1006.4 1006.2 0.0
14/03:30am 23.1 24.7 19.1 78 2.5 S 9 13 5 7 1006.5 1006.3 0.0
14/03:00am 23.6 25.3 19.3 77 2.8 S 9 13 5 7 1006.7 1006.5 0.0
14/02:30am 23.6 25.4 19.5 78 2.6 SSW 9 11 5 6 1006.6 1006.4 0.0
14/02:00am 23.7 25.4 19.4 77 2.8 SSW 9 13 5 7 1006.8 1006.6 0.0
14/01:30am 23.8 25.6 19.5 77 2.8 S 9 13 5 7 1007.2 1007.0 0.0
14/01:00am 24.0 25.0 19.5 76 2.9 SSE 13 19 7 10 1007.6 1007.4 0.0
14/12:30am 23.8 25.9 19.3 76 2.9 SSE 7 13 4 7 1008.1 1007.9 0.0
14/12:00am 24.1 25.6 19.0 73 3.3 SE 9 13 5 7 1008.3 1008.1 0.0
 
Date/Time
EST
Temp
°C
App
Temp
°C
Dew
Point
Rel
Hum
%
Delta-T
°C
Wind Press
QNH
hPa
Press
MSL
hPa
Rain
since 9 am
mm
Dir
 
Spd
km/h
Gust
km/h
Spd
kts
Gust
kts
13/11:30pm 24.5 24.4 18.7 70 3.7 SE 17 24 9 13 1008.5 1008.3 0.0
13/11:00pm 25.0 24.9 19.6 72 3.5 SE 19 28 10 15 1008.6 1008.4 0.0
13/10:30pm 24.9 25.6 20.4 76 2.9 SE 17 26 9 14 1008.6 1008.4 0.0
13/10:00pm 24.5 26.8 20.6 79 2.6 SSE 9 13 5 7 1008.6 1008.4 0.0
13/09:30pm 24.4 26.3 20.5 79 2.5 SSE 11 15 6 8 1008.5 1008.3 0.0
13/09:00pm 24.6 26.5 20.5 78 2.7 SE 11 20 6 11 1008.4 1008.2 0.0
13/08:30pm 24.9 25.7 19.9 74 3.2 SE 15 22 8 12 1008.3 1008.1 0.0
13/08:00pm 24.7 26.8 20.2 76 2.9 SE 9 15 5 8 1008.1 1007.9 0.0
13/07:30pm 24.8 25.4 19.4 72 3.5 SE 15 22 8 12 1007.8 1007.6 0.0
13/07:00pm 26.2 28.2 21.6 76 3.1 ESE 13 22 7 12 1007.2 1007.0 0.0
13/06:30pm 26.5 28.0 21.3 73 3.5 ESE 15 24 8 13 1006.8 1006.6 0.0
13/06:00pm 26.9 28.5 20.7 69 4.1 SE 13 20 7 11 1006.5 1006.3 0.0
13/05:30pm 28.2 29.4 20.0 61 5.4 ESE 13 20 7 11 1006.0 1005.8 0.0
13/05:00pm 29.2 30.5 20.1 58 6.0 SE 13 22 7 12 1005.7 1005.5 0.0
13/04:30pm 29.1 29.6 20.0 58 6.0 ESE 17 28 9 15 1005.4 1005.2 0.0
13/04:00pm 30.0 30.5 20.0 55 6.6 ESE 17 28 9 15 1005.4 1005.2 0.0
13/03:30pm 30.3 30.5 19.3 51 7.2 ESE 17 26 9 14 1005.6 1005.4 0.0
13/03:00pm 30.6 31.0 19.9 52 7.1 ESE 17 24 9 13 1005.9 1005.7 0.0
13/02:30pm 29.1 29.8 19.7 57 6.1 ESE 15 24 8 13 1006.2 1006.0 0.0
13/02:00pm 29.9 29.8 19.9 55 6.6 SE 20 32 11 17 1006.4 1006.2 0.0
13/01:30pm 29.7 28.8 19.1 53 6.9 SSE 22 35 12 19 1006.7 1006.5 0.0
13/01:00pm 29.8 28.7 19.5 54 6.7 SE 24 37 13 20 1007.2 1007.0 0.0
13/12:44pm 29.1 26.8 18.5 52 6.8 SE 28 50 15 27 1007.4 1007.2 0.0
13/12:30pm 29.3 27.7 19.3 55 6.5 SSE 26 43 14 23 1007.5 1007.3 0.0
13/12:00pm 28.6 27.4 19.2 56 6.1 SSE 24 39 13 21 1008.1 1007.9 0.0
13/11:30am 28.2 27.2 19.7 60 5.5 SSE 24 35 13 19 1008.4 1008.2 0.0
13/11:00am 26.8 26.3 19.2 63 4.9 SSE 20 30 11 16 1008.8 1008.6 0.0
13/10:30am 27.1 26.7 19.4 62 5.0 SSE 20 33 11 18 1009.0 1008.8 0.0
13/10:00am 26.2 25.7 19.1 65 4.6 SSE 20 30 11 16 1009.1 1008.9 0.0
13/09:30am 25.8 25.2 18.5 64 4.6 SSE 19 28 10 15 1009.4 1009.2 0.0
13/09:00am 25.5 25.4 18.7 66 4.3 SSE 17 28 9 15 1009.3 1009.1 0.0
13/08:30am 25.1 25.2 18.3 66 4.3 SSE 15 22 8 12 1009.2 1009.0 0.0
13/08:00am 24.5 24.1 18.0 67 4.1 SSE 17 26 9 14 1009.1 1008.9 0.0
13/07:30am 24.7 24.4 18.2 67 4.1 S 17 26 9 14 1009.0 1008.8 0.0
13/07:00am 23.8 23.6 17.5 68 3.9 S 15 20 8 11 1008.7 1008.5 0.0
13/06:30am 22.8 22.7 17.0 70 3.6 S 13 19 7 10 1008.3 1008.1 0.0
13/06:00am 22.0 22.1 17.4 75 2.8 S 13 17 7 9 1008.0 1007.8 0.0
13/05:30am 22.3 22.1 17.7 75 2.9 SSE 15 20 8 11 1007.8 1007.6 0.0
13/05:00am 22.2 22.5 17.8 76 2.7 SSE 13 19 7 10 1007.6 1007.4 0.0
13/04:30am 22.2 22.8 17.8 76 2.7 S 11 15 6 8 1007.6 1007.4 0.0
13/04:00am 22.6 23.1 17.5 73 3.2 S 11 17 6 9 1007.3 1007.1 0.0
13/03:30am 22.8 23.8 17.7 73 3.2 S 9 13 5 7 1007.3 1007.1 0.0
13/03:00am 23.2 24.3 18.1 73 3.2 S 9 17 5 9 1007.6 1007.4 0.0
13/02:30am 23.6 24.6 18.7 74 3.1 SSE 11 15 6 8 1007.6 1007.4 0.0
13/02:00am 24.3 25.1 19.1 73 3.3 SE 13 20 7 11 1007.9 1007.7 0.0
13/01:30am 24.6 25.0 19.9 75 3.0 SSE 17 24 9 13 1008.2 1008.0 0.0
13/01:00am 25.0 25.5 20.0 74 3.2 SSE 17 28 9 15 1008.5 1008.3 0.0
13/12:30am 25.3 25.4 19.9 72 3.5 SE 19 28 10 15 1008.9 1008.7 0.0
13/12:00am 25.4 26.0 20.2 73 3.4 SE 17 28 9 15 1009.2 1009.0 0.0
 
Date/Time
EST
Temp
°C
App
Temp
°C
Dew
Point
Rel
Hum
%
Delta-T
°C
Wind Press
QNH
hPa
Press
MSL
hPa
Rain
since 9 am
mm
Dir
 
Spd
km/h
Gust
km/h
Spd
kts
Gust
kts
12/11:30pm 25.6 25.8 20.2 72 3.5 SE 19 28 10 15 1009.6 1009.4 0.0
12/11:00pm 25.7 26.0 20.3 72 3.5 ESE 19 30 10 16 1009.8 1009.6 0.0
12/10:30pm 25.9 26.3 20.7 73 3.4 SE 19 28 10 15 1010.0 1009.8 0.0
12/10:00pm 25.9 27.1 20.7 73 3.4 SE 15 26 8 14 1010.0 1009.8 0.0
12/09:30pm 25.7 26.8 20.5 73 3.4 SE 15 24 8 13 1010.1 1009.9 0.0
12/09:00pm 25.9 27.6 20.9 74 3.3 SE 13 19 7 10 1010.1 1009.9 0.0
12/08:30pm 25.6 27.2 20.8 75 3.2 SE 13 20 7 11 1009.9 1009.7 0.0
12/08:00pm 25.7 27.8 20.9 75 3.2 SE 11 19 6 10 1009.7 1009.5 0.0
12/07:30pm 25.7 27.7 20.7 74 3.3 SE 11 20 6 11 1009.4 1009.2 0.0
12/07:00pm 26.1 27.2 20.4 71 3.7 SE 15 24 8 13 1009.1 1008.9 0.0
12/06:30pm 26.5 27.0 20.1 68 4.2 SE 17 26 9 14 1008.6 1008.4 0.0
12/06:00pm 27.3 28.0 19.6 62 5.0 SE 15 28 8 15 1008.5 1008.3 0.0
12/05:30pm 28.0 27.8 18.4 56 6.1 SE 17 30 9 16 1008.4 1008.2 0.0
12/05:00pm 28.5 27.6 18.3 54 6.5 SE 20 32 11 17 1008.1 1007.9 0.0
12/04:30pm 28.7 27.8 18.2 53 6.7 SE 20 33 11 18 1008.1 1007.9 0.0
12/04:00pm 28.8 27.5 19.1 55 6.3 ESE 24 35 13 19 1008.0 1007.8 0.0
12/03:30pm 29.3 28.4 19.0 53 6.7 SE 22 32 12 17 1008.0 1007.8 0.0
12/03:00pm 29.8 29.0 19.2 53 6.9 SSE 22 35 12 19 1008.0 1007.8 0.0
12/02:30pm 29.5 28.4 18.6 52 7.0 SE 22 41 12 22 1008.0 1007.8 0.0
12/02:00pm 29.5 29.2 19.5 55 6.5 SE 20 30 11 16 1008.3 1008.1 0.0
12/01:30pm 28.6 27.9 19.5 58 5.9 SE 22 37 12 20 1008.6 1008.4 0.0
12/01:00pm 28.9 27.7 19.2 55 6.3 SSE 24 35 13 19 1008.8 1008.6 0.0
12/12:30pm 29.2 28.8 20.1 58 6.0 SSE 22 32 12 17 1009.1 1008.9 0.0
12/12:00pm 28.0 27.2 19.2 58 5.7 SE 22 41 12 22 1009.6 1009.4 0.0
12/11:30am 28.5 27.8 20.2 60 5.5 SSE 24 35 13 19 1009.8 1009.6 0.0
12/11:00am 28.7 28.6 19.9 59 5.8 SE 20 32 11 17 1010.0 1009.8 0.0
12/10:30am 26.8 26.5 19.2 63 4.9 SSE 19 32 10 17 1010.3 1010.1 0.0
12/10:00am 26.9 26.1 20.0 66 4.5 SSE 24 37 13 20 1010.7 1010.5 0.0
12/09:30am 26.8 26.8 20.2 67 4.3 SSE 20 32 11 17 1010.9 1010.7 0.0
12/09:00am 25.5 25.4 19.9 71 3.6 SSE 20 30 11 16 1010.8 1010.6 0.0
12/08:30am 25.0 25.1 20.0 74 3.2 SSE 19 33 10 18 1010.6 1010.4 0.0
12/08:00am 24.5 25.2 19.6 74 3.2 S 15 28 8 15 1010.5 1010.3 0.0
12/07:30am 24.2 24.9 19.7 76 2.9 S 15 22 8 12 1010.4 1010.2 0.0
12/07:00am 23.9 25.1 19.8 78 2.6 SSE 13 20 7 11 1010.2 1010.0 0.0
12/06:30am 23.6 25.1 19.7 79 2.5 S 11 17 6 9 1010.0 1009.8 0.0
12/06:00am 23.6 24.7 19.7 79 2.5 SSE 13 20 7 11 1009.7 1009.5 0.0
12/05:30am 23.7 24.8 19.6 78 2.6 S 13 19 7 10 1009.4 1009.2 0.0
12/05:00am 24.1 24.9 19.8 77 2.8 SSE 15 22 8 12 1009.3 1009.1 0.0
12/04:30am 24.1 24.9 19.8 77 2.8 SSE 15 26 8 14 1009.0 1008.8 0.0
12/04:00am 24.2 25.9 20.1 78 2.7 S 11 20 6 11 1008.9 1008.7 0.0
12/03:30am 24.4 25.8 20.3 78 2.7 SSE 13 20 7 11 1008.9 1008.7 0.0
12/03:00am 24.5 26.3 20.4 78 2.7 SSE 11 20 6 11 1008.9 1008.7 0.0
12/02:30am 24.7 26.2 20.6 78 2.7 SE 13 22 7 12 1009.0 1008.8 0.0
12/02:00am 24.6 26.2 20.7 79 2.6 SE 13 20 7 11 1009.3 1009.1 0.0
12/01:30am 25.0 26.6 20.7 77 2.8 SE 13 20 7 11 1009.4 1009.2 0.0
12/01:00am 25.4 26.3 20.0 72 3.5 SE 15 20 8 11 1009.7 1009.5 0.0
12/12:30am 25.4 26.4 20.2 73 3.4 SE 15 20 8 11 1009.9 1009.7 0.0
12/12:00am 25.3 26.6 20.1 73 3.4 SE 13 20 7 11 1010.0 1009.8 0.0
 
Date/Time
EST
Temp
°C
App
Temp
°C
Dew
Point
Rel
Hum
%
Delta-T
°C
Wind Press
QNH
hPa
Press
MSL
hPa
Rain
since 9 am
mm
Dir
 
Spd
km/h
Gust
km/h
Spd
kts
Gust
kts
11/11:30pm 25.5 26.5 20.3 73 3.4 SE 15 24 8 13 1010.2 1010.0 0.0
11/11:00pm 25.2 26.7 20.5 75 3.1 SE 13 22 7 12 1010.4 1010.2 0.0

Other Formats:

Comma delimited format used in spreadsheet applications
http://www.bom.gov.au/fwo/IDQ60801/IDQ60801.94370.axf

JavaScript Object Notation format (JSON) in row-major order
http://www.bom.gov.au/fwo/IDQ60801/IDQ60801.94370.json